Aérodrome :
LOGIN :

S'inscrire | Disclaimer

   EN    FR    IT 

 










Légende :    VFR   VFR Marginal   IFR   IFR Intensif   IFR Très Intensif
Visi : 
Plafond : 
>= 8 km
>= 3000ft
5 à 8 km
1000 à 3000 ft
1500m à 5 km
500 à 1000 ft
800 à 1500m
200 à 500 ft
< 800m
< 200 ft
Symboles :   Orages  Brouillard  Fortes neiges  Fortes précipitations  Vent > 20 kt
SIGMETs :   Divers  Orages  Givrage  Turbulence  Onde Orograph.  Cendres Volcan.







- Altitude de l'aérodrome : 33 ft
- Code IATA : MHZ


EGUN - RAF Mildenhall

DERNIER METAR :
  • 261626Z AUTO 23018KT 9999 FEW060 15/03 A2992 RMK AO2 WSHFT 19 SLPNO $

METARs EXPIRÉS :
  • 261556Z AUTO 26017KT 9999 CLR 15/01 A2991 RMK AO2 PK WND 27027/12 SLP132 T01480013 $
  • 261456Z AUTO 25017G23KT 9999 FEW060 15/02 A2992 RMK AO2 PK WND 27028/12 SLP135 T01510023 58007 $

TAF TAF EGUN
Valide du 26 à 12h jusqu'au 27 à 18h UTC


261201Z 2612/2718 25015G25KT 9999 FEW035 QNH2991INS
BECMG 2618/2619 24012KT 9999 FEW045 QNH2978INS
BECMG 2710/2711 12009KT 8000 -SHRA BKN010 620409 QNH2968INS
BECMG 2714/2715 12012G20KT 8000 -SHRA SCT015 BKN035 QNH2963INS TX14/2615Z TN06/2703Z
Pas de NOTAMs connus pour ce terrain.



MET'MAP, la Météo Aéronautique d'un coup d'oeil ! - Copyright ORBIFLY Décembre 2007 - Disclaimer

ORBIFLY MET'MAP TEAM :

Programmation & Développement : Alexandra Zaïnal
Conception & Développement : Baudouin d'Aumeries
Co-Programmation & Développement : Marc-Olivier Méhu
Soutien technique & logistique : Manuel Goepfert

Contact : metmap@orbifly.com




SOURCES & CREDITS :

   NOAA